Time;durP1;ratioP1;P1;durP2;ratioP2;P2;SDS_P1;SDS_P2;PMS_P1;PMS_P2;Temp;Humidity;BMP_temperature;BMP_pressure;BME280_temperature;BME280_humidity;BME280_pressure;Samples;Min_cycle;Max_cycle;Signal;HPM_P1;HPM_P2
2022/03/07 00:01:50;;;;;;;38.58;32.50;;;0.70;99.90;;;;;;5033027;28;20025;-62
2022/03/07 00:04:17;;;;;;;41.47;33.35;;;0.50;99.90;;;;;;5033509;28;20108;-65
2022/03/07 00:06:49;;;;;;;42.05;33.67;;;0.60;99.90;;;;;;5033552;28;20033;-63
2022/03/07 00:09:16;;;;;;;41.42;32.90;;;0.70;99.90;;;;;;5034168;28;20026;-64
2022/03/07 00:11:42;;;;;;;41.40;34.30;;;0.70;99.90;;;;;;5033239;28;20033;-64
2022/03/07 00:14:08;;;;;;;43.10;33.83;;;0.40;99.90;;;;;;5032856;28;20049;-64
2022/03/07 00:16:34;;;;;;;40.88;33.60;;;0.30;99.90;;;;;;5033637;28;20063;-64
2022/03/07 00:19:00;;;;;;;38.30;32.38;;;0.30;99.90;;;;;;5032940;28;20064;-64
2022/03/07 00:21:26;;;;;;;38.50;32.45;;;0.20;99.90;;;;;;5035053;28;20034;-63
2022/03/07 00:23:52;;;;;;;37.47;30.98;;;0.10;99.90;;;;;;5031595;28;20037;-64
2022/03/07 00:26:18;;;;;;;37.33;30.73;;;0.30;99.90;;;;;;5033397;28;20040;-64
2022/03/07 00:28:45;;;;;;;41.60;34.88;;;0.40;99.90;;;;;;5032612;28;20470;-64
2022/03/07 00:31:11;;;;;;;61.90;47.58;;;0.50;99.90;;;;;;5032960;28;20030;-63
2022/03/07 00:33:37;;;;;;;86.25;62.60;;;0.40;99.90;;;;;;5033982;28;20036;-64
2022/03/07 00:36:04;;;;;;;108.57;76.20;;;0.30;99.90;;;;;;5033501;28;20057;-64
2022/03/07 00:38:30;;;;;;;61.88;47.97;;;0.20;99.90;;;;;;5031240;28;20033;-63
2022/03/07 00:40:56;;;;;;;51.85;40.67;;;0.00;99.90;;;;;;5032751;28;20509;-64
2022/03/07 00:43:22;;;;;;;47.35;37.75;;;-0.10;99.90;;;;;;5032399;28;20497;-63
2022/03/07 00:45:49;;;;;;;45.00;34.80;;;-0.10;99.90;;;;;;5032717;28;20029;-64
2022/03/07 00:48:16;;;;;;;41.63;34.13;;;-0.30;99.90;;;;;;5034265;28;20028;-64
2022/03/07 00:50:44;;;;;;;41.30;33.30;;;-0.20;99.90;;;;;;5032215;28;20037;-63
2022/03/07 00:53:11;;;;;;;40.28;31.90;;;-0.10;99.90;;;;;;5032431;28;20044;-61
2022/03/07 00:55:38;;;;;;;49.72;39.75;;;-0.10;99.90;;;;;;5032977;28;20041;-64
2022/03/07 00:58:03;;;;;;;41.67;33.00;;;0.00;99.90;;;;;;5032158;28;20026;-63
2022/03/07 01:00:29;;;;;;;38.50;31.45;;;0.00;99.90;;;;;;5034007;28;20037;-64
2022/03/07 01:02:55;;;;;;;38.47;32.17;;;-0.10;99.90;;;;;;5032526;28;20104;-64
2022/03/07 01:05:21;;;;;;;38.95;31.33;;;-0.20;99.90;;;;;;5032270;28;20037;-64
2022/03/07 01:07:47;;;;;;;39.15;32.67;;;-0.40;99.90;;;;;;5032238;28;20029;-63
2022/03/07 01:10:13;;;;;;;38.28;31.23;;;-0.30;99.90;;;;;;5032234;28;20049;-62
2022/03/07 01:12:39;;;;;;;37.20;31.55;;;-0.20;99.90;;;;;;5032649;28;20112;-64
2022/03/07 01:15:07;;;;;;;38.45;31.30;;;-0.20;99.90;;;;;;5033107;28;20038;-64
2022/03/07 01:17:34;;;;;;;38.75;32.40;;;-0.30;99.90;;;;;;5030506;28;20021;-64
2022/03/07 01:20:00;;;;;;;38.20;31.85;;;-0.30;99.90;;;;;;5032161;28;20099;-64
2022/03/07 01:22:26;;;;;;;37.55;32.58;;;-0.30;99.90;;;;;;5032006;28;20430;-62
2022/03/07 01:24:51;;;;;;;37.97;32.67;;;-0.60;99.90;;;;;;5032032;28;20048;-64
2022/03/07 01:27:17;;;;;;;40.10;32.15;;;-0.70;99.90;;;;;;5033307;28;20025;-64
2022/03/07 01:29:43;;;;;;;38.92;31.77;;;-0.80;99.90;;;;;;5031781;28;20045;-62
2022/03/07 01:32:09;;;;;;;40.00;30.92;;;-0.90;99.90;;;;;;5031763;28;20029;-64
2022/03/07 01:34:35;;;;;;;40.40;33.15;;;-0.80;99.90;;;;;;5031778;28;20526;-63
2022/03/07 01:37:01;;;;;;;39.88;30.77;;;-0.80;99.90;;;;;;5031759;28;20046;-61
2022/03/07 01:39:27;;;;;;;37.47;31.20;;;-1.00;99.90;;;;;;5032925;28;20521;-59
2022/03/07 01:41:52;;;;;;;37.85;30.67;;;-1.10;99.90;;;;;;5028871;28;20030;-64
2022/03/07 01:44:21;;;;;;;43.63;35.13;;;-1.10;99.90;;;;;;5031161;28;20447;-64
2022/03/07 01:46:48;;;;;;;43.85;35.33;;;-1.00;99.90;;;;;;5031393;28;20066;-63
2022/03/07 01:49:13;;;;;;;43.58;35.03;;;-0.80;99.90;;;;;;5031277;28;20536;-63
2022/03/07 01:51:43;;;;;;;43.90;36.08;;;-0.80;99.90;;;;;;5032463;28;20045;-63
2022/03/07 01:54:11;;;;;;;43.33;35.25;;;-1.00;99.90;;;;;;5033011;28;20030;-63
2022/03/07 01:56:37;;;;;;;45.22;35.03;;;-0.90;99.90;;;;;;5029843;28;20410;-63
2022/03/07 01:59:04;;;;;;;42.97;34.90;;;-0.90;99.90;;;;;;5031068;28;20033;-63
2022/03/07 02:01:30;;;;;;;45.55;36.83;;;-1.10;99.90;;;;;;5031329;28;20038;-63
2022/03/07 02:03:56;;;;;;;48.30;37.22;;;-1.30;99.90;;;;;;5030774;28;20052;-63
2022/03/07 02:06:23;;;;;;;46.70;35.85;;;-1.30;99.90;;;;;;5032921;28;20034;-63
2022/03/07 02:08:51;;;;;;;47.67;35.67;;;-1.40;99.90;;;;;;5031036;28;20112;-63
2022/03/07 02:11:17;;;;;;;45.40;36.90;;;-1.40;99.90;;;;;;5030957;28;20045;-63
2022/03/07 02:13:43;;;;;;;49.20;38.83;;;-1.10;99.90;;;;;;5030860;28;20104;-64
2022/03/07 02:16:09;;;;;;;47.95;37.47;;;-1.00;99.90;;;;;;5031134;28;20271;-64
2022/03/07 02:18:35;;;;;;;47.97;37.35;;;-1.10;99.90;;;;;;5032385;28;20501;-63
2022/03/07 02:21:14;;;;;;;48.42;38.70;;;-1.10;99.90;;;;;;5030455;28;20443;-64
2022/03/07 02:23:40;;;;;;;47.60;38.25;;;-1.10;99.90;;;;;;5030736;28;20034;-63
2022/03/07 02:26:11;;;;;;;45.10;36.47;;;-1.10;99.90;;;;;;5030436;28;20398;-63
2022/03/07 02:28:40;;;;;;;43.65;36.03;;;-1.20;99.90;;;;;;5030927;28;20048;-64
2022/03/07 02:31:06;;;;;;;46.38;36.28;;;-1.40;99.90;;;;;;5030853;28;20124;-64
2022/03/07 02:33:33;;;;;;;46.47;35.53;;;-1.50;99.90;;;;;;5032209;28;20443;-63
2022/03/07 02:35:59;;;;;;;46.67;36.72;;;-1.50;99.90;;;;;;5031420;28;20152;-63
2022/03/07 02:38:25;;;;;;;53.10;40.95;;;-1.50;99.90;;;;;;5030822;28;20481;-63
2022/03/07 02:40:51;;;;;;;54.70;41.30;;;-1.60;99.90;;;;;;5030102;28;20524;-63
2022/03/07 02:43:17;;;;;;;52.03;39.58;;;-1.70;99.90;;;;;;5027703;28;20537;-63
2022/03/07 02:45:43;;;;;;;53.17;40.20;;;-1.70;99.90;;;;;;5030897;28;20375;-64
2022/03/07 02:48:09;;;;;;;54.40;41.67;;;-1.70;99.90;;;;;;5032118;28;20026;-64
2022/03/07 02:50:34;;;;;;;56.15;41.60;;;-1.80;99.90;;;;;;5030319;28;20103;-63
2022/03/07 02:53:00;;;;;;;50.42;39.83;;;-1.80;99.90;;;;;;5030207;28;20017;-63
2022/03/07 02:55:26;;;;;;;56.58;42.95;;;-1.90;99.90;;;;;;5030334;28;20040;-63
2022/03/07 02:57:52;;;;;;;51.03;40.95;;;-1.90;99.90;;;;;;5030059;28;20076;-63
2022/03/07 03:00:18;;;;;;;50.92;41.45;;;-2.00;99.90;;;;;;5030394;28;20109;-63
2022/03/07 03:02:43;;;;;;;51.03;39.55;;;-2.00;99.90;;;;;;5030552;28;20120;-63
2022/03/07 03:05:10;;;;;;;49.17;39.40;;;-2.10;99.90;;;;;;5029797;28;20108;-64
2022/03/07 03:07:36;;;;;;;46.53;37.25;;;-2.00;99.90;;;;;;5030065;28;20029;-63
2022/03/07 03:10:02;;;;;;;48.72;38.42;;;-2.00;99.90;;;;;;5029483;28;20100;-63
2022/03/07 03:12:28;;;;;;;47.72;37.50;;;-2.10;99.90;;;;;;5032155;28;20076;-63
2022/03/07 03:14:54;;;;;;;50.17;37.90;;;-2.20;99.90;;;;;;5028397;28;20490;-64
2022/03/07 03:17:20;;;;;;;49.50;39.00;;;-2.20;99.90;;;;;;5029857;28;20040;-64
2022/03/07 03:19:47;;;;;;;47.50;36.40;;;-2.10;99.90;;;;;;5030077;28;20051;-63
2022/03/07 03:22:12;;;;;;;46.00;36.33;;;-2.20;99.90;;;;;;5029935;28;20032;-63
2022/03/07 03:24:38;;;;;;;44.60;35.65;;;-2.10;99.90;;;;;;5030591;28;20030;-63
2022/03/07 03:27:07;;;;;;;44.38;34.70;;;-2.10;99.90;;;;;;5030976;28;20032;-63
2022/03/07 03:29:33;;;;;;;44.42;34.42;;;-2.20;99.90;;;;;;5029635;28;20045;-63
2022/03/07 03:31:59;;;;;;;44.42;33.92;;;-2.20;99.90;;;;;;5029655;28;20052;-63
2022/03/07 03:34:25;;;;;;;46.97;36.50;;;-2.20;99.90;;;;;;5029812;28;20029;-63
2022/03/07 03:36:51;;;;;;;47.45;35.28;;;-1.90;99.90;;;;;;5029857;28;20053;-63
2022/03/07 03:39:17;;;;;;;50.38;37.40;;;-2.00;99.90;;;;;;5028705;28;20502;-63
2022/03/07 03:41:43;;;;;;;45.10;36.03;;;-2.00;99.90;;;;;;5029838;28;20025;-63
2022/03/07 03:44:09;;;;;;;42.35;33.35;;;-1.90;99.90;;;;;;5029615;28;20452;-63
2022/03/07 03:46:34;;;;;;;45.60;35.08;;;-2.00;99.90;;;;;;5029611;28;20025;-63
2022/03/07 03:49:00;;;;;;;43.17;34.13;;;-2.10;99.90;;;;;;5029637;28;20080;-63
2022/03/07 03:51:26;;;;;;;41.25;33.65;;;-2.20;99.90;;;;;;5031495;28;20037;-63
2022/03/07 03:53:52;;;;;;;44.33;34.92;;;-2.20;99.90;;;;;;5027644;28;20490;-63
2022/03/07 03:56:18;;;;;;;45.63;35.95;;;-2.20;99.90;;;;;;5029384;28;20033;-63
2022/03/07 03:58:43;;;;;;;44.10;35.15;;;-2.20;99.90;;;;;;5029779;28;20067;-63
2022/03/07 04:01:09;;;;;;;46.95;35.38;;;-2.30;99.90;;;;;;5029593;28;20409;-63
2022/03/07 04:03:35;;;;;;;48.03;37.88;;;-2.30;99.90;;;;;;5030935;28;20088;-63
2022/03/07 04:06:03;;;;;;;51.05;38.25;;;-2.30;99.90;;;;;;5029874;28;20025;-63
2022/03/07 04:08:32;;;;;;;51.90;39.83;;;-2.30;99.90;;;;;;5029022;28;20037;-63
2022/03/07 04:10:58;;;;;;;51.70;38.58;;;-2.30;99.90;;;;;;5029103;28;20477;-63
2022/03/07 04:13:24;;;;;;;55.10;42.42;;;-2.20;99.90;;;;;;5026935;28;20026;-63
2022/03/07 04:15:49;;;;;;;53.15;40.95;;;-2.30;99.90;;;;;;5029721;28;20037;-62
2022/03/07 04:18:15;;;;;;;52.90;40.22;;;-2.30;99.90;;;;;;5029569;28;20021;-63
2022/03/07 04:20:42;;;;;;;52.47;38.65;;;-2.20;99.90;;;;;;5028963;28;20095;-62
2022/03/07 04:23:08;;;;;;;46.30;36.85;;;-2.30;99.90;;;;;;5029646;28;20018;-63
2022/03/07 04:25:33;;;;;;;44.78;34.75;;;-2.40;99.90;;;;;;5030074;28;20493;-62
2022/03/07 04:28:00;;;;;;;45.42;35.65;;;-2.40;99.90;;;;;;5032939;28;20445;-63
2022/03/07 04:30:27;;;;;;;48.38;37.40;;;-2.40;99.90;;;;;;5034571;28;20501;-63
2022/03/07 04:32:52;;;;;;;46.85;36.03;;;-2.50;99.90;;;;;;5031191;28;20079;-63
2022/03/07 04:35:19;;;;;;;47.45;36.85;;;-2.60;99.90;;;;;;5032077;28;20520;-63
2022/03/07 04:37:44;;;;;;;47.10;36.50;;;-2.60;99.90;;;;;;5032782;28;20485;-63
2022/03/07 04:40:13;;;;;;;54.03;40.35;;;-2.70;99.90;;;;;;5032777;28;20063;-63
2022/03/07 04:42:41;;;;;;;53.38;40.53;;;-2.50;99.90;;;;;;5033676;28;20049;-63
2022/03/07 04:45:07;;;;;;;56.17;41.13;;;-2.60;99.90;;;;;;5034049;28;20033;-63
2022/03/07 04:47:33;;;;;;;52.75;39.25;;;-2.70;99.90;;;;;;5032495;28;20068;-63
2022/03/07 04:49:59;;;;;;;50.90;37.85;;;-2.70;99.90;;;;;;5031844;28;20067;-63
2022/03/07 04:52:25;;;;;;;49.33;37.40;;;-2.80;99.90;;;;;;5032263;28;20056;-63
2022/03/07 04:54:50;;;;;;;51.85;37.42;;;-2.80;99.90;;;;;;5032654;28;20037;-63
2022/03/07 04:57:16;;;;;;;48.55;35.85;;;-2.90;99.90;;;;;;5032734;28;20033;-63
2022/03/07 04:59:45;;;;;;;47.85;36.63;;;-2.80;99.90;;;;;;5032486;28;20033;-63
2022/03/07 05:02:13;;;;;;;46.33;36.42;;;-2.90;99.90;;;;;;5031874;28;20124;-63
2022/03/07 05:04:39;;;;;;;51.50;37.72;;;-2.90;99.90;;;;;;5032207;28;20036;-64
2022/03/07 05:07:05;;;;;;;46.83;35.33;;;-2.90;99.90;;;;;;5032111;28;20032;-63
2022/03/07 05:09:31;;;;;;;52.75;39.15;;;-2.80;99.90;;;;;;5034006;28;20116;-64
2022/03/07 05:11:58;;;;;;;45.47;35.67;;;-2.70;99.90;;;;;;5032537;28;20092;-63
2022/03/07 05:14:23;;;;;;;46.92;36.85;;;-2.80;99.90;;;;;;5032017;28;20033;-63
2022/03/07 05:16:49;;;;;;;47.55;36.80;;;-3.00;99.90;;;;;;5031923;28;20124;-63
2022/03/07 05:19:15;;;;;;;48.55;36.58;;;-3.00;99.90;;;;;;5031800;28;20060;-63
2022/03/07 05:21:41;;;;;;;54.83;40.70;;;-3.20;99.90;;;;;;5032977;28;20038;-63
2022/03/07 05:24:07;;;;;;;49.72;36.72;;;-3.10;99.90;;;;;;5033006;28;20025;-62
2022/03/07 05:26:33;;;;;;;50.83;39.00;;;-3.00;99.90;;;;;;5031868;28;20040;-63
2022/03/07 05:28:59;;;;;;;48.35;36.45;;;-3.00;99.90;;;;;;5031692;28;20406;-63
2022/03/07 05:31:24;;;;;;;52.95;37.88;;;-3.00;99.90;;;;;;5031824;28;20060;-63
2022/03/07 05:33:50;;;;;;;52.13;38.60;;;-3.10;99.90;;;;;;5032268;28;20029;-63
2022/03/07 05:36:16;;;;;;;54.95;39.92;;;-3.10;99.90;;;;;;5031773;28;20084;-62
2022/03/07 05:38:42;;;;;;;55.25;40.20;;;-3.10;99.90;;;;;;5030600;28;20052;-63
2022/03/07 05:41:07;;;;;;;51.63;38.50;;;-3.10;99.90;;;;;;5031454;28;20045;-63
2022/03/07 05:43:34;;;;;;;55.05;41.30;;;-3.10;99.90;;;;;;5031685;28;20030;-63
2022/03/07 05:46:00;;;;;;;56.42;42.70;;;-3.00;99.90;;;;;;5015954;28;20025;-63
2022/03/07 05:48:26;;;;;;;59.05;42.95;;;-3.00;99.90;;;;;;5032726;28;20036;-63
2022/03/07 05:50:52;;;;;;;59.15;43.20;;;-3.00;99.90;;;;;;5029549;28;20513;-62
2022/03/07 05:53:21;;;;;;;57.42;42.50;;;-2.90;99.90;;;;;;5031376;28;20494;-63
2022/03/07 05:55:49;;;;;;;57.25;41.78;;;-2.80;99.90;;;;;;5031185;28;20037;-62
2022/03/07 05:58:15;;;;;;;59.75;45.45;;;-2.80;99.90;;;;;;5031386;28;20045;-63
2022/03/07 06:00:40;;;;;;;63.88;50.78;;;-2.90;99.90;;;;;;5032328;28;20114;-63
2022/03/07 06:03:06;;;;;;;63.50;44.80;;;-2.90;99.90;;;;;;5030815;28;20370;-63
2022/03/07 06:05:32;;;;;;;55.25;41.25;;;-2.90;99.90;;;;;;5031092;28;20486;-63
2022/03/07 06:07:59;;;;;;;55.38;42.38;;;-3.00;99.90;;;;;;5031303;28;20494;-62
2022/03/07 06:10:24;;;;;;;54.03;40.97;;;-3.20;99.90;;;;;;5031001;28;20495;-62
2022/03/07 06:12:50;;;;;;;57.28;42.20;;;-3.30;99.90;;;;;;5031368;28;20021;-63
2022/03/07 06:15:16;;;;;;;55.53;40.90;;;-3.30;99.90;;;;;;5031203;28;20029;-62
2022/03/07 06:17:51;;;;;;;56.67;41.85;;;-3.40;99.90;;;;;;5030436;28;20032;-62
2022/03/07 06:20:19;;;;;;;55.80;42.03;;;-3.50;99.90;;;;;;5031324;28;20120;-62
2022/03/07 06:22:44;;;;;;;60.75;43.58;;;-3.50;99.90;;;;;;5030318;28;20113;-63
2022/03/07 06:25:10;;;;;;;61.65;44.75;;;-3.50;99.90;;;;;;5031023;28;20110;-63
2022/03/07 06:27:36;;;;;;;59.05;43.63;;;-3.50;99.90;;;;;;5031988;28;20509;-62
2022/03/07 06:30:03;;;;;;;58.90;42.97;;;-3.50;99.90;;;;;;5029651;28;20536;-62
2022/03/07 06:32:29;;;;;;;54.40;41.70;;;-3.40;99.90;;;;;;5030121;28;20105;-62
2022/03/07 06:34:54;;;;;;;58.08;43.97;;;-3.40;99.90;;;;;;5030689;28;20033;-62
2022/03/07 06:37:20;;;;;;;72.18;49.97;;;-3.30;99.90;;;;;;5030520;28;20029;-62
2022/03/07 06:39:46;;;;;;;221.25;150.45;;;-3.10;99.90;;;;;;5030567;28;20390;-62
2022/03/07 06:42:12;;;;;;;137.70;91.75;;;-3.00;99.90;;;;;;5028720;28;20053;-62
2022/03/07 06:44:39;;;;;;;140.75;86.80;;;-3.10;99.90;;;;;;5030302;28;20026;-62
2022/03/07 06:47:08;;;;;;;145.10;87.45;;;-3.10;99.90;;;;;;5029919;28;20040;-62
2022/03/07 06:49:34;;;;;;;114.43;69.25;;;-2.90;99.90;;;;;;5030041;28;20044;-61
2022/03/07 06:52:01;;;;;;;104.32;67.18;;;-2.30;99.90;;;;;;5013212;28;20452;-62
2022/03/07 06:54:27;;;;;;;102.38;63.63;;;-1.80;99.90;;;;;;5031897;28;20032;-62
2022/03/07 06:56:53;;;;;;;74.82;51.72;;;-1.40;99.90;;;;;;5030144;28;20117;-61
2022/03/07 06:59:19;;;;;;;56.53;41.92;;;-0.70;99.90;;;;;;5027026;28;20514;-62
2022/03/07 07:01:44;;;;;;;68.15;47.20;;;-0.10;99.90;;;;;;5030151;28;20029;-62
2022/03/07 07:04:10;;;;;;;62.15;44.10;;;0.30;99.90;;;;;;5030187;28;20103;-61
2022/03/07 07:06:36;;;;;;;51.85;38.45;;;0.80;99.90;;;;;;5031371;28;20036;-61
2022/03/07 07:09:02;;;;;;;43.78;34.83;;;1.50;99.90;;;;;;5029001;28;20393;-61
2022/03/07 07:11:28;;;;;;;46.83;35.45;;;1.90;99.90;;;;;;5029958;28;20087;-61
2022/03/07 07:13:54;;;;;;;65.85;44.03;;;2.50;99.90;;;;;;5030047;28;20482;-63
2022/03/07 07:16:20;;;;;;;72.35;48.00;;;3.20;99.90;;;;;;5029705;28;20028;-61
2022/03/07 07:18:46;;;;;;;73.78;48.67;;;3.30;99.90;;;;;;5030056;28;20025;-62
2022/03/07 07:21:12;;;;;;;71.60;46.97;;;3.60;99.90;;;;;;5031623;28;20060;-61
2022/03/07 07:23:37;;;;;;;80.50;49.92;;;3.60;99.90;;;;;;5029763;28;20056;-63
2022/03/07 07:26:04;;;;;;;88.50;53.17;;;4.10;99.90;;;;;;5030214;28;20097;-62
2022/03/07 07:28:30;;;;;;;89.07;53.97;;;4.10;99.90;;;;;;5029844;28;20029;-62
2022/03/07 07:30:56;;;;;;;76.50;47.88;;;4.70;99.90;;;;;;5027901;28;20111;-62
2022/03/07 07:33:22;;;;;;;63.50;41.35;;;4.30;99.90;;;;;;5030954;28;20452;-63
2022/03/07 07:35:48;;;;;;;56.88;39.42;;;4.80;99.90;;;;;;5029962;28;20049;-62
2022/03/07 07:38:14;;;;;;;50.63;35.50;;;4.90;99.90;;;;;;5029640;28;20509;-61
2022/03/07 07:40:40;;;;;;;50.28;35.55;;;5.20;99.90;;;;;;5029780;28;20038;-63
2022/03/07 07:43:07;;;;;;;50.17;34.42;;;6.20;99.90;;;;;;5029829;28;20104;-62
2022/03/07 07:45:33;;;;;;;48.30;35.38;;;6.60;99.90;;;;;;5031278;28;20064;-62
2022/03/07 07:47:59;;;;;;;35.70;28.63;;;7.00;99.90;;;;;;5028753;28;20022;-62
2022/03/07 07:50:26;;;;;;;36.08;27.77;;;8.00;99.90;;;;;;5029476;28;20505;-63
2022/03/07 07:52:54;;;;;;;34.75;27.55;;;8.40;99.90;;;;;;5029603;28;20479;-60
2022/03/07 07:55:20;;;;;;;35.65;28.38;;;8.20;99.90;;;;;;5029530;28;20036;-64
2022/03/07 07:57:45;;;;;;;32.83;27.25;;;8.30;99.90;;;;;;5029208;28;20026;-62
2022/03/07 08:00:15;;;;;;;36.22;27.73;;;9.00;99.90;;;;;;5029113;28;20033;-63
2022/03/07 08:02:42;;;;;;;34.40;26.75;;;8.50;99.90;;;;;;5032406;28;20102;-62
2022/03/07 08:05:08;;;;;;;31.85;25.98;;;9.20;99.90;;;;;;5033211;28;20044;-61
2022/03/07 08:07:34;;;;;;;29.67;24.75;;;10.30;99.90;;;;;;5032821;28;20025;-63
2022/03/07 08:10:01;;;;;;;29.13;25.08;;;10.60;98.80;;;;;;5030222;28;20045;-63
2022/03/07 08:12:27;;;;;;;28.45;23.45;;;10.30;97.60;;;;;;5034526;28;20105;-64
2022/03/07 08:14:53;;;;;;;31.20;24.98;;;12.10;97.60;;;;;;5032106;28;20442;-62
2022/03/07 08:17:18;;;;;;;31.60;26.42;;;12.20;94.90;;;;;;5032932;28;20021;-64
2022/03/07 08:19:44;;;;;;;28.42;22.75;;;11.70;94.40;;;;;;5033176;28;20079;-63
2022/03/07 08:22:10;;;;;;;28.60;23.92;;;12.10;94.90;;;;;;5032959;28;20029;-64
2022/03/07 08:24:35;;;;;;;27.25;21.88;;;13.70;92.50;;;;;;5034696;28;20049;-64
2022/03/07 08:27:02;;;;;;;28.88;22.15;;;14.40;90.80;;;;;;5032214;28;20032;-64
2022/03/07 08:29:27;;;;;;;50.55;35.70;;;15.30;88.10;;;;;;5032417;28;20477;-64
2022/03/07 08:31:53;;;;;;;91.53;60.97;;;13.60;91.40;;;;;;5033026;28;20065;-64
2022/03/07 08:34:19;;;;;;;35.50;27.83;;;15.70;88.70;;;;;;5030235;28;20026;-64
2022/03/07 08:36:45;;;;;;;32.45;26.90;;;16.10;84.20;;;;;;5032988;28;20561;-64
2022/03/07 08:39:10;;;;;;;25.65;22.95;;;16.20;84.60;;;;;;5034832;28;20026;-64
2022/03/07 08:41:37;;;;;;;27.67;23.40;;;16.80;83.40;;;;;;5032717;28;20029;-63
2022/03/07 08:44:02;;;;;;;25.40;22.70;;;17.30;81.60;;;;;;5032783;28;20100;-65
2022/03/07 08:46:28;;;;;;;27.63;23.45;;;16.50;83.20;;;;;;5032848;28;20144;-64
2022/03/07 08:48:54;;;;;;;28.20;23.67;;;17.20;80.50;;;;;;5032715;28;20500;-64
2022/03/07 08:51:20;;;;;;;24.67;21.75;;;14.90;85.00;;;;;;5033670;28;20053;-63
2022/03/07 08:53:45;;;;;;;58.38;49.33;;;16.40;82.30;;;;;;5032472;28;20018;-64
2022/03/07 08:56:12;;;;;;;25.00;21.83;;;16.90;83.00;;;;;;5032192;28;20029;-64
2022/03/07 08:58:39;;;;;;;23.48;20.98;;;17.00;80.90;;;;;;5032412;28;20107;-63
2022/03/07 09:01:04;;;;;;;25.90;21.30;;;17.50;80.70;;;;;;5032374;28;20529;-64
2022/03/07 09:03:30;;;;;;;23.90;21.40;;;18.50;77.60;;;;;;5034554;28;20017;-62
2022/03/07 09:05:56;;;;;;;24.42;21.83;;;17.90;77.60;;;;;;5030956;28;20030;-63
2022/03/07 09:08:22;;;;;;;26.55;21.73;;;17.40;77.00;;;;;;5032248;28;20097;-64
2022/03/07 09:10:47;;;;;;;24.15;21.63;;;17.40;77.20;;;;;;5031441;28;20597;-63
2022/03/07 09:13:13;;;;;;;24.95;22.35;;;16.50;78.60;;;;;;5031501;28;20021;-63
2022/03/07 09:15:42;;;;;;;24.08;21.08;;;17.40;78.70;;;;;;5033468;28;20037;-63
2022/03/07 09:18:08;;;;;;;24.02;20.77;;;17.60;77.80;;;;;;5033388;28;20057;-62
2022/03/07 09:20:33;;;;;;;23.65;21.25;;;18.00;76.40;;;;;;5032271;28;20147;-64
2022/03/07 09:22:59;;;;;;;24.15;21.67;;;17.10;78.30;;;;;;5031741;28;20021;-63
2022/03/07 09:25:25;;;;;;;23.85;21.42;;;17.60;77.00;;;;;;5032205;28;20079;-62
2022/03/07 09:27:51;;;;;;;25.70;21.40;;;17.60;75.50;;;;;;5031802;28;20828;-64
2022/03/07 09:30:16;;;;;;;23.13;20.65;;;18.70;71.50;;;;;;5032140;28;20029;-63
2022/03/07 09:32:42;;;;;;;24.52;21.90;;;17.40;75.00;;;;;;5031859;28;20036;-63
2022/03/07 09:35:09;;;;;;;22.80;20.15;;;17.40;74.90;;;;;;5031572;28;20109;-63
2022/03/07 09:37:34;;;;;;;23.95;20.85;;;20.90;71.90;;;;;;5031651;28;20037;-63
2022/03/07 09:40:00;;;;;;;24.67;21.77;;;19.90;71.00;;;;;;5031478;28;20569;-63
2022/03/07 09:42:27;;;;;;;24.02;20.60;;;18.60;71.80;;;;;;5033714;28;20079;-63
2022/03/07 09:44:54;;;;;;;22.73;20.33;;;18.70;75.90;;;;;;5030190;28;20038;-64
2022/03/07 09:47:22;;;;;;;22.38;20.00;;;18.70;72.40;;;;;;5040644;28;20030;-63
2022/03/07 09:49:50;;;;;;;23.33;20.98;;;20.20;74.40;;;;;;5031635;28;20402;-64
2022/03/07 09:52:16;;;;;;;21.92;19.63;;;19.50;71.70;;;;;;5031322;28;20084;-62
2022/03/07 09:54:41;;;;;;;21.75;19.45;;;19.10;74.10;;;;;;5031938;28;20470;-64
2022/03/07 09:57:07;;;;;;;21.65;19.38;;;20.20;70.80;;;;;;5032020;28;20030;-63
2022/03/07 09:59:35;;;;;;;21.55;19.45;;;18.90;73.00;;;;;;5030992;28;20038;-64
2022/03/07 10:02:03;;;;;;;38.00;28.40;;;19.50;73.00;;;;;;5030231;28;20021;-64
2022/03/07 10:04:30;;;;;;;34.72;25.60;;;20.60;70.20;;;;;;5030978;28;20120;-64
2022/03/07 10:06:57;;;;;;;23.70;21.17;;;19.90;70.20;;;;;;5030737;28;20436;-63
2022/03/07 10:09:25;;;;;;;24.45;21.90;;;20.20;70.00;;;;;;5031930;28;20041;-64
2022/03/07 10:11:54;;;;;;;22.15;19.85;;;20.20;67.90;;;;;;5028920;28;20056;-64
2022/03/07 10:14:34;;;;;;;21.77;19.67;;;19.30;67.70;;;;;;5031541;28;20056;-63
2022/03/07 10:17:00;;;;;;;21.92;19.63;;;20.00;67.50;;;;;;5028270;28;20060;-64
2022/03/07 10:19:26;;;;;;;21.65;19.40;;;19.10;64.20;;;;;;5019519;28;20037;-64
2022/03/07 10:21:53;;;;;;;20.48;18.27;;;16.70;69.00;;;;;;5016491;28;20064;-64
2022/03/07 10:24:34;;;;;;;20.25;18.10;;;17.50;70.10;;;;;;5031904;28;20029;-63
2022/03/07 10:27:00;;;;;;;20.95;18.83;;;18.90;68.40;;;;;;5031865;28;20056;-64
2022/03/07 10:29:26;;;;;;;20.70;18.52;;;18.90;67.40;;;;;;5024698;28;20044;-63
2022/03/07 10:31:52;;;;;;;19.52;17.52;;;19.40;62.80;;;;;;5020607;28;20095;-64
2022/03/07 10:34:18;;;;;;;19.05;17.10;;;18.80;66.20;;;;;;5018466;28;20483;-63
2022/03/07 10:36:45;;;;;;;19.98;17.98;;;20.00;63.70;;;;;;5015815;28;20058;-64
2022/03/07 10:39:15;;;;;;;18.95;16.95;;;19.90;63.90;;;;;;5018624;28;20033;-63
2022/03/07 10:41:45;;;;;;;17.80;15.95;;;20.90;62.90;;;;;;5024804;28;20421;-63
2022/03/07 10:44:37;;;;;;;17.15;15.40;;;21.90;60.00;;;;;;5026690;28;20053;-64
2022/03/07 10:47:17;;;;;;;18.92;16.88;;;21.10;58.70;;;;;;5027362;28;20403;-63
2022/03/07 10:49:47;;;;;;;18.70;16.70;;;21.20;62.60;;;;;;5021247;28;20040;-64
2022/03/07 10:52:13;;;;;;;15.75;14.15;;;20.90;59.90;;;;;;5031499;28;20033;-64
2022/03/07 10:54:39;;;;;;;15.27;13.60;;;20.20;61.70;;;;;;5031569;28;20025;-64
2022/03/07 10:57:07;;;;;;;15.95;14.45;;;21.80;60.40;;;;;;5031074;28;20036;-63
2022/03/07 10:59:35;;;;;;;15.57;14.07;;;20.70;57.90;;;;;;5030587;28;20498;-64
2022/03/07 11:02:10;;;;;;;16.00;14.40;;;21.10;61.50;;;;;;5028565;28;20040;-64
2022/03/07 11:04:41;;;;;;;16.38;14.77;;;20.80;60.50;;;;;;5030329;28;20537;-64
2022/03/07 11:07:09;;;;;;;16.15;14.52;;;20.40;60.40;;;;;;5029889;28;20092;-64
2022/03/07 11:09:36;;;;;;;16.17;14.65;;;18.70;62.60;;;;;;5031546;28;20041;-64
2022/03/07 11:12:03;;;;;;;17.00;15.20;;;18.00;59.50;;;;;;5029278;28;20509;-64
2022/03/07 11:14:29;;;;;;;16.35;14.75;;;16.00;61.10;;;;;;5030008;28;20140;-63
2022/03/07 11:16:59;;;;;;;16.33;14.63;;;17.00;63.20;;;;;;5030094;28;20158;-64
2022/03/07 11:19:26;;;;;;;16.65;14.60;;;16.90;60.60;;;;;;5027266;28;20034;-64
2022/03/07 11:21:53;;;;;;;16.45;14.85;;;16.10;62.90;;;;;;5030092;28;20045;-64
2022/03/07 11:24:22;;;;;;;17.35;15.55;;;17.50;61.90;;;;;;5031772;28;20029;-64
2022/03/07 11:26:49;;;;;;;15.70;14.13;;;18.20;62.70;;;;;;5028720;28;20021;-64
2022/03/07 11:29:16;;;;;;;16.02;14.40;;;17.70;61.60;;;;;;5029791;28;20068;-64
2022/03/07 11:31:43;;;;;;;15.88;14.18;;;17.20;61.30;;;;;;5029588;28;20112;-64
2022/03/07 11:34:10;;;;;;;16.85;15.15;;;18.10;65.10;;;;;;5030499;28;20116;-64
2022/03/07 11:36:39;;;;;;;15.88;14.27;;;18.90;61.10;;;;;;5033580;28;20045;-64
2022/03/07 11:39:06;;;;;;;17.10;14.88;;;19.20;61.00;;;;;;5034549;28;20026;-64
2022/03/07 11:41:39;;;;;;;15.77;14.18;;;18.60;62.90;;;;;;5032813;28;20029;-64
2022/03/07 11:44:10;;;;;;;15.77;14.18;;;18.10;63.60;;;;;;5034050;28;20048;-64
2022/03/07 11:46:50;;;;;;;15.88;14.27;;;18.20;62.20;;;;;;5033939;28;20040;-64
2022/03/07 11:49:26;;;;;;;14.35;12.93;;;17.90;62.90;;;;;;5033794;28;20498;-64
2022/03/07 11:52:03;;;;;;;16.23;14.63;;;18.20;61.50;;;;;;5033482;28;20037;-64
2022/03/07 11:54:29;;;;;;;16.20;14.60;;;17.80;57.90;;;;;;5035869;28;20514;-64
2022/03/07 11:57:11;;;;;;;16.15;14.57;;;18.20;58.50;;;;;;5033732;28;20032;-64
2022/03/07 11:59:37;;;;;;;16.20;14.50;;;16.00;59.50;;;;;;5033671;28;20053;-64
2022/03/07 12:02:04;;;;;;;14.90;13.40;;;16.40;60.40;;;;;;5033746;28;20032;-64
2022/03/07 12:04:44;;;;;;;15.95;14.23;;;16.90;62.80;;;;;;5033532;28;20053;-64
2022/03/07 12:07:10;;;;;;;16.00;14.30;;;17.20;63.30;;;;;;5000006;28;20036;-64
2022/03/07 12:09:39;;;;;;;16.10;14.07;;;17.30;61.00;;;;;;5034731;28;20116;-64
2022/03/07 12:12:09;;;;;;;15.55;13.93;;;17.40;63.50;;;;;;5034118;28;20368;-64
2022/03/07 12:14:38;;;;;;;15.82;14.13;;;16.90;61.80;;;;;;5033443;28;20087;-64
2022/03/07 12:17:16;;;;;;;16.10;14.18;;;16.80;66.30;;;;;;5033357;28;20033;-64
2022/03/07 12:19:43;;;;;;;15.43;13.82;;;17.10;65.60;;;;;;5031409;28;20025;-63
2022/03/07 12:22:14;;;;;;;14.60;13.00;;;17.40;64.70;;;;;;5033327;28;20113;-64
2022/03/07 12:24:41;;;;;;;14.57;13.05;;;16.20;59.10;;;;;;5034689;28;20030;-64
2022/03/07 12:27:08;;;;;;;14.07;12.60;;;15.90;59.70;;;;;;5034045;28;20517;-63